sensor_id;sensor_type;location;lat;lon;timestamp;pressure;altitude;pressure_sealevel;temperature;humidity
77526;BME280;66627;29.424;-98.496;2024-03-17T00:00:40;98386.54;;;27.91;46.03
77526;BME280;66627;29.424;-98.496;2024-03-17T00:03:05;98390.30;;;26.11;48.34
77526;BME280;66627;29.424;-98.496;2024-03-17T00:05:30;98395.52;;;28.43;45.65
77526;BME280;66627;29.424;-98.496;2024-03-17T00:07:55;98399.26;;;28.15;45.61
77526;BME280;66627;29.424;-98.496;2024-03-17T00:10:21;98406.17;;;26.54;48.08
77526;BME280;66627;29.424;-98.496;2024-03-17T00:12:46;98412.86;;;27.01;47.05
77526;BME280;66627;29.424;-98.496;2024-03-17T00:15:12;98416.92;;;26.83;49.00
77526;BME280;66627;29.424;-98.496;2024-03-17T00:17:37;98423.10;;;27.69;47.75
77526;BME280;66627;29.424;-98.496;2024-03-17T00:20:02;98428.53;;;27.78;47.10
77526;BME280;66627;29.424;-98.496;2024-03-17T00:22:28;98427.40;;;28.09;46.46
77526;BME280;66627;29.424;-98.496;2024-03-17T00:24:52;98437.69;;;28.03;47.35
77526;BME280;66627;29.424;-98.496;2024-03-17T00:27:17;98439.61;;;25.75;51.27
77526;BME280;66627;29.424;-98.496;2024-03-17T00:29:42;98436.74;;;27.53;48.02
77526;BME280;66627;29.424;-98.496;2024-03-17T00:32:08;98441.68;;;27.61;48.28
77526;BME280;66627;29.424;-98.496;2024-03-17T00:34:32;98446.43;;;27.42;48.47
77526;BME280;66627;29.424;-98.496;2024-03-17T00:36:57;98450.97;;;26.55;50.68
77526;BME280;66627;29.424;-98.496;2024-03-17T00:39:23;98456.33;;;27.85;48.58
77526;BME280;66627;29.424;-98.496;2024-03-17T00:41:48;98463.06;;;27.91;48.54
77526;BME280;66627;29.424;-98.496;2024-03-17T00:44:13;98466.69;;;27.48;48.92
77526;BME280;66627;29.424;-98.496;2024-03-17T00:46:38;98468.73;;;28.11;47.47
77526;BME280;66627;29.424;-98.496;2024-03-17T00:49:04;98470.16;;;27.28;48.75
77526;BME280;66627;29.424;-98.496;2024-03-17T00:51:29;98468.90;;;27.27;48.60
77526;BME280;66627;29.424;-98.496;2024-03-17T00:53:53;98466.42;;;27.13;49.93
77526;BME280;66627;29.424;-98.496;2024-03-17T00:56:19;98467.39;;;27.61;48.65
77526;BME280;66627;29.424;-98.496;2024-03-17T00:58:44;98466.93;;;27.56;47.98
77526;BME280;66627;29.424;-98.496;2024-03-17T01:01:10;98471.56;;;28.04;47.20
77526;BME280;66627;29.424;-98.496;2024-03-17T01:03:35;98470.52;;;27.67;47.90
77526;BME280;66627;29.424;-98.496;2024-03-17T01:06:04;98467.20;;;27.69;48.05
77526;BME280;66627;29.424;-98.496;2024-03-17T01:08:26;98468.90;;;28.02;48.05
77526;BME280;66627;29.424;-98.496;2024-03-17T01:10:52;98466.99;;;27.44;48.45
77526;BME280;66627;29.424;-98.496;2024-03-17T01:13:18;98467.87;;;27.87;47.67
77526;BME280;66627;29.424;-98.496;2024-03-17T01:15:44;98470.26;;;28.02;48.13
77526;BME280;66627;29.424;-98.496;2024-03-17T01:18:09;98476.18;;;27.33;48.85
77526;BME280;66627;29.424;-98.496;2024-03-17T01:20:35;98480.82;;;26.57;51.82
77526;BME280;66627;29.424;-98.496;2024-03-17T01:23:00;98480.35;;;25.67;51.76
77526;BME280;66627;29.424;-98.496;2024-03-17T01:25:25;98481.47;;;25.38;53.44
77526;BME280;66627;29.424;-98.496;2024-03-17T01:27:50;98479.34;;;26.21;52.13
77526;BME280;66627;29.424;-98.496;2024-03-17T01:30:16;98479.12;;;26.05;53.05
77526;BME280;66627;29.424;-98.496;2024-03-17T01:32:41;98486.20;;;25.86;52.42
77526;BME280;66627;29.424;-98.496;2024-03-17T01:35:07;98487.84;;;25.95;53.96
77526;BME280;66627;29.424;-98.496;2024-03-17T01:37:32;98489.45;;;25.94;53.55
77526;BME280;66627;29.424;-98.496;2024-03-17T01:39:57;98497.86;;;25.07;55.48
77526;BME280;66627;29.424;-98.496;2024-03-17T01:42:23;98500.23;;;25.29;54.42
77526;BME280;66627;29.424;-98.496;2024-03-17T01:44:48;98500.81;;;25.31;53.98
77526;BME280;66627;29.424;-98.496;2024-03-17T01:47:14;98500.32;;;25.26;54.52
77526;BME280;66627;29.424;-98.496;2024-03-17T01:49:40;98502.24;;;24.81;55.39
77526;BME280;66627;29.424;-98.496;2024-03-17T01:52:05;98497.19;;;24.94;55.46
77526;BME280;66627;29.424;-98.496;2024-03-17T01:54:30;98494.24;;;25.30;54.92
77526;BME280;66627;29.424;-98.496;2024-03-17T01:56:55;98492.83;;;25.24;54.53
77526;BME280;66627;29.424;-98.496;2024-03-17T01:59:20;98495.54;;;25.41;55.02
77526;BME280;66627;29.424;-98.496;2024-03-17T02:01:45;98497.92;;;25.10;55.01
77526;BME280;66627;29.424;-98.496;2024-03-17T02:04:11;98501.17;;;25.01;55.82
77526;BME280;66627;29.424;-98.496;2024-03-17T02:06:36;98504.13;;;24.57;56.86
77526;BME280;66627;29.424;-98.496;2024-03-17T02:09:01;98501.40;;;25.09;55.37
77526;BME280;66627;29.424;-98.496;2024-03-17T02:11:27;98502.14;;;24.91;56.25
77526;BME280;66627;29.424;-98.496;2024-03-17T02:13:52;98509.79;;;24.94;55.74
77526;BME280;66627;29.424;-98.496;2024-03-17T02:16:16;98518.42;;;25.18;55.62
77526;BME280;66627;29.424;-98.496;2024-03-17T02:18:41;98531.18;;;23.89;57.76
77526;BME280;66627;29.424;-98.496;2024-03-17T02:21:07;98537.23;;;24.40;57.07
77526;BME280;66627;29.424;-98.496;2024-03-17T02:23:34;98537.98;;;24.48;57.22
77526;BME280;66627;29.424;-98.496;2024-03-17T02:25:56;98541.57;;;24.32;57.07
77526;BME280;66627;29.424;-98.496;2024-03-17T02:28:22;98546.08;;;24.36;57.57
77526;BME280;66627;29.424;-98.496;2024-03-17T02:30:48;98542.27;;;23.62;59.74
77526;BME280;66627;29.424;-98.496;2024-03-17T02:33:14;98541.96;;;23.27;60.93
77526;BME280;66627;29.424;-98.496;2024-03-17T02:35:39;98542.62;;;23.58;61.34
77526;BME280;66627;29.424;-98.496;2024-03-17T02:38:04;98535.93;;;23.25;62.56
77526;BME280;66627;29.424;-98.496;2024-03-17T02:40:29;98527.80;;;22.89;64.23
77526;BME280;66627;29.424;-98.496;2024-03-17T02:42:55;98522.47;;;22.70;65.98
77526;BME280;66627;29.424;-98.496;2024-03-17T02:45:21;98526.01;;;22.25;66.58
77526;BME280;66627;29.424;-98.496;2024-03-17T02:47:47;98531.72;;;22.21;67.26
77526;BME280;66627;29.424;-98.496;2024-03-17T02:50:12;98543.22;;;21.83;68.00
77526;BME280;66627;29.424;-98.496;2024-03-17T02:52:37;98553.10;;;21.70;68.72
77526;BME280;66627;29.424;-98.496;2024-03-17T02:55:03;98557.91;;;21.69;68.91
77526;BME280;66627;29.424;-98.496;2024-03-17T02:57:28;98561.20;;;22.22;68.92
77526;BME280;66627;29.424;-98.496;2024-03-17T02:59:54;98568.67;;;21.57;69.76
77526;BME280;66627;29.424;-98.496;2024-03-17T03:02:19;98569.17;;;22.01;68.47
77526;BME280;66627;29.424;-98.496;2024-03-17T03:04:44;98578.98;;;21.30;70.02
77526;BME280;66627;29.424;-98.496;2024-03-17T03:07:10;98578.53;;;22.48;67.36
77526;BME280;66627;29.424;-98.496;2024-03-17T03:09:36;98582.01;;;21.90;68.32
77526;BME280;66627;29.424;-98.496;2024-03-17T03:12:01;98582.13;;;21.37;69.26
77526;BME280;66627;29.424;-98.496;2024-03-17T03:14:28;98595.26;;;21.23;71.22
77526;BME280;66627;29.424;-98.496;2024-03-17T03:16:53;98607.26;;;21.57;70.07
77526;BME280;66627;29.424;-98.496;2024-03-17T03:19:18;98607.93;;;21.20;70.46
77526;BME280;66627;29.424;-98.496;2024-03-17T03:21:43;98605.93;;;21.01;70.52
77526;BME280;66627;29.424;-98.496;2024-03-17T03:24:09;98595.00;;;21.71;68.86
77526;BME280;66627;29.424;-98.496;2024-03-17T03:26:34;98601.60;;;20.76;70.04
77526;BME280;66627;29.424;-98.496;2024-03-17T03:29:00;98599.99;;;21.50;69.00
77526;BME280;66627;29.424;-98.496;2024-03-17T03:31:25;98598.74;;;20.87;70.46
77526;BME280;66627;29.424;-98.496;2024-03-17T03:33:50;98599.86;;;20.89;69.59
77526;BME280;66627;29.424;-98.496;2024-03-17T03:36:21;98596.67;;;21.62;69.32
77526;BME280;66627;29.424;-98.496;2024-03-17T03:38:42;98589.80;;;22.15;67.97
77526;BME280;66627;29.424;-98.496;2024-03-17T03:41:08;98578.33;;;21.54;68.53
77526;BME280;66627;29.424;-98.496;2024-03-17T03:43:33;98568.92;;;21.76;67.59
77526;BME280;66627;29.424;-98.496;2024-03-17T03:45:59;98574.58;;;21.44;68.29
77526;BME280;66627;29.424;-98.496;2024-03-17T03:48:24;98592.87;;;20.57;70.15
77526;BME280;66627;29.424;-98.496;2024-03-17T03:50:49;98615.44;;;21.43;68.66
77526;BME280;66627;29.424;-98.496;2024-03-17T03:53:14;98625.78;;;21.17;69.52
77526;BME280;66627;29.424;-98.496;2024-03-17T03:55:40;98634.52;;;21.69;68.06
77526;BME280;66627;29.424;-98.496;2024-03-17T03:58:05;98637.31;;;22.00;67.02
77526;BME280;66627;29.424;-98.496;2024-03-17T04:00:31;98641.97;;;21.59;68.52
77526;BME280;66627;29.424;-98.496;2024-03-17T04:02:57;98651.67;;;21.44;68.85
77526;BME280;66627;29.424;-98.496;2024-03-17T04:05:21;98647.24;;;22.17;66.92
77526;BME280;66627;29.424;-98.496;2024-03-17T04:07:48;98639.01;;;21.12;69.74
77526;BME280;66627;29.424;-98.496;2024-03-17T04:10:14;98622.99;;;20.88;70.91
77526;BME280;66627;29.424;-98.496;2024-03-17T04:12:39;98618.82;;;20.81;71.21
77526;BME280;66627;29.424;-98.496;2024-03-17T04:15:04;98623.03;;;20.97;71.10
77526;BME280;66627;29.424;-98.496;2024-03-17T04:17:30;98630.85;;;20.87;71.17
77526;BME280;66627;29.424;-98.496;2024-03-17T04:19:55;98626.26;;;21.48;69.23
77526;BME280;66627;29.424;-98.496;2024-03-17T04:22:21;98621.04;;;21.26;69.81
77526;BME280;66627;29.424;-98.496;2024-03-17T04:24:46;98630.48;;;21.85;68.70
77526;BME280;66627;29.424;-98.496;2024-03-17T04:27:10;98642.94;;;21.30;70.19
77526;BME280;66627;29.424;-98.496;2024-03-17T04:29:36;98644.42;;;20.97;70.28
77526;BME280;66627;29.424;-98.496;2024-03-17T04:32:01;98647.36;;;20.86;70.31
77526;BME280;66627;29.424;-98.496;2024-03-17T04:34:27;98649.43;;;20.89;70.15
77526;BME280;66627;29.424;-98.496;2024-03-17T04:36:53;98640.83;;;21.40;68.95
77526;BME280;66627;29.424;-98.496;2024-03-17T04:39:18;98634.94;;;21.57;69.03
77526;BME280;66627;29.424;-98.496;2024-03-17T04:41:43;98630.58;;;21.49;68.80
77526;BME280;66627;29.424;-98.496;2024-03-17T04:44:09;98612.88;;;21.42;68.93
77526;BME280;66627;29.424;-98.496;2024-03-17T04:46:34;98607.25;;;21.35;69.19
77526;BME280;66627;29.424;-98.496;2024-03-17T04:48:59;98617.56;;;21.26;69.77
77526;BME280;66627;29.424;-98.496;2024-03-17T04:51:25;98621.70;;;20.10;73.24
77526;BME280;66627;29.424;-98.496;2024-03-17T04:53:49;98622.15;;;20.38;72.68
77526;BME280;66627;29.424;-98.496;2024-03-17T04:56:15;98621.70;;;20.86;71.50
77526;BME280;66627;29.424;-98.496;2024-03-17T04:58:41;98634.90;;;21.18;70.32
77526;BME280;66627;29.424;-98.496;2024-03-17T05:01:07;98641.80;;;20.69;71.08
77526;BME280;66627;29.424;-98.496;2024-03-17T05:03:31;98639.15;;;20.65;70.53
77526;BME280;66627;29.424;-98.496;2024-03-17T05:06:00;98646.92;;;21.92;68.33
77526;BME280;66627;29.424;-98.496;2024-03-17T05:08:22;98657.85;;;21.13;69.83
77526;BME280;66627;29.424;-98.496;2024-03-17T05:10:55;98671.91;;;22.03;67.69
77526;BME280;66627;29.424;-98.496;2024-03-17T05:13:14;98687.38;;;22.37;66.53
77526;BME280;66627;29.424;-98.496;2024-03-17T05:15:39;98688.46;;;22.12;65.63
77526;BME280;66627;29.424;-98.496;2024-03-17T05:18:05;98692.24;;;21.53;67.46
77526;BME280;66627;29.424;-98.496;2024-03-17T05:20:30;98693.06;;;21.56;67.30
77526;BME280;66627;29.424;-98.496;2024-03-17T05:22:56;98698.56;;;21.98;66.04
77526;BME280;66627;29.424;-98.496;2024-03-17T05:25:21;98697.03;;;21.66;66.53
77526;BME280;66627;29.424;-98.496;2024-03-17T05:27:47;98686.72;;;21.70;66.31
77526;BME280;66627;29.424;-98.496;2024-03-17T05:30:13;98680.81;;;21.91;66.37
77526;BME280;66627;29.424;-98.496;2024-03-17T05:32:38;98675.94;;;20.73;68.78
77526;BME280;66627;29.424;-98.496;2024-03-17T05:35:04;98677.02;;;21.52;68.64
77526;BME280;66627;29.424;-98.496;2024-03-17T05:37:29;98687.26;;;20.37;70.37
77526;BME280;66627;29.424;-98.496;2024-03-17T05:39:54;98692.67;;;20.98;71.24
77526;BME280;66627;29.424;-98.496;2024-03-17T05:42:21;98698.57;;;20.74;74.57
77526;BME280;66627;29.424;-98.496;2024-03-17T05:44:46;98705.63;;;19.61;77.94
77526;BME280;66627;29.424;-98.496;2024-03-17T05:47:11;98716.54;;;19.96;77.96
77526;BME280;66627;29.424;-98.496;2024-03-17T05:49:37;98723.92;;;20.20;78.36
77526;BME280;66627;29.424;-98.496;2024-03-17T05:52:03;98735.25;;;20.53;78.78
77526;BME280;66627;29.424;-98.496;2024-03-17T05:54:27;98743.01;;;19.58;80.76
77526;BME280;66627;29.424;-98.496;2024-03-17T05:56:52;98750.25;;;20.95;79.39
77526;BME280;66627;29.424;-98.496;2024-03-17T05:59:18;98757.12;;;20.04;78.49
77526;BME280;66627;29.424;-98.496;2024-03-17T06:01:43;98768.89;;;20.35;79.11
77526;BME280;66627;29.424;-98.496;2024-03-17T06:04:18;98777.36;;;20.50;79.57
77526;BME280;66627;29.424;-98.496;2024-03-17T06:06:35;98785.79;;;21.21;76.64
77526;BME280;66627;29.424;-98.496;2024-03-17T06:09:00;98784.62;;;21.25;76.88
77526;BME280;66627;29.424;-98.496;2024-03-17T06:11:25;98780.66;;;20.79;77.66
77526;BME280;66627;29.424;-98.496;2024-03-17T06:13:50;98774.89;;;20.28;78.74
77526;BME280;66627;29.424;-98.496;2024-03-17T06:16:16;98780.30;;;20.47;79.90
77526;BME280;66627;29.424;-98.496;2024-03-17T06:18:42;98792.65;;;20.83;78.73
77526;BME280;66627;29.424;-98.496;2024-03-17T06:21:07;98802.12;;;19.94;81.43
77526;BME280;66627;29.424;-98.496;2024-03-17T06:23:32;98812.28;;;19.38;83.48
77526;BME280;66627;29.424;-98.496;2024-03-17T06:25:58;98819.36;;;19.83;83.40
77526;BME280;66627;29.424;-98.496;2024-03-17T06:28:24;98829.68;;;19.56;83.42
77526;BME280;66627;29.424;-98.496;2024-03-17T06:30:54;98842.08;;;18.57;90.78
77526;BME280;66627;29.424;-98.496;2024-03-17T06:33:16;98861.63;;;18.49;91.46
77526;BME280;66627;29.424;-98.496;2024-03-17T06:35:39;98873.32;;;18.57;91.27
77526;BME280;66627;29.424;-98.496;2024-03-17T06:38:05;98892.89;;;18.50;90.26
77526;BME280;66627;29.424;-98.496;2024-03-17T06:40:31;98898.98;;;19.40;86.74
77526;BME280;66627;29.424;-98.496;2024-03-17T06:42:56;98907.66;;;18.78;89.62
77526;BME280;66627;29.424;-98.496;2024-03-17T06:45:22;98904.99;;;19.50;88.19
77526;BME280;66627;29.424;-98.496;2024-03-17T06:47:47;98887.78;;;18.61;90.54
77526;BME280;66627;29.424;-98.496;2024-03-17T06:50:12;98882.27;;;18.24;92.95
77526;BME280;66627;29.424;-98.496;2024-03-17T06:52:42;98863.55;;;18.67;92.36
77526;BME280;66627;29.424;-98.496;2024-03-17T06:55:03;98852.81;;;18.17;94.54
77526;BME280;66627;29.424;-98.496;2024-03-17T06:57:28;98842.76;;;18.53;93.49
77526;BME280;66627;29.424;-98.496;2024-03-17T06:59:53;98841.70;;;17.75;96.55
77526;BME280;66627;29.424;-98.496;2024-03-17T07:02:20;98836.36;;;18.39;93.14
77526;BME280;66627;29.424;-98.496;2024-03-17T07:04:45;98838.66;;;18.55;91.46
77526;BME280;66627;29.424;-98.496;2024-03-17T07:07:10;98850.13;;;17.82;93.82
77526;BME280;66627;29.424;-98.496;2024-03-17T07:09:36;98853.44;;;18.44;92.02
77526;BME280;66627;29.424;-98.496;2024-03-17T07:12:01;98865.32;;;18.35;90.40
77526;BME280;66627;29.424;-98.496;2024-03-17T07:14:26;98877.11;;;18.41;92.48
77526;BME280;66627;29.424;-98.496;2024-03-17T07:16:52;98880.34;;;18.66;90.39
77526;BME280;66627;29.424;-98.496;2024-03-17T07:19:18;98885.74;;;19.94;85.90
77526;BME280;66627;29.424;-98.496;2024-03-17T07:21:44;98887.90;;;19.35;87.23
77526;BME280;66627;29.424;-98.496;2024-03-17T07:24:08;98881.81;;;19.80;85.26
77526;BME280;66627;29.424;-98.496;2024-03-17T07:26:35;98866.12;;;20.35;83.07
77526;BME280;66627;29.424;-98.496;2024-03-17T07:29:00;98856.66;;;20.58;82.49
77526;BME280;66627;29.424;-98.496;2024-03-17T07:31:26;98857.84;;;19.02;88.56
77526;BME280;66627;29.424;-98.496;2024-03-17T07:33:51;98849.92;;;19.21;89.29
77526;BME280;66627;29.424;-98.496;2024-03-17T07:36:15;98839.90;;;18.48;90.81
77526;BME280;66627;29.424;-98.496;2024-03-17T07:38:41;98819.73;;;18.30;92.95
77526;BME280;66627;29.424;-98.496;2024-03-17T07:41:07;98799.71;;;17.83;95.60
77526;BME280;66627;29.424;-98.496;2024-03-17T07:43:33;98775.93;;;18.20;94.11
77526;BME280;66627;29.424;-98.496;2024-03-17T07:46:00;98732.00;;;18.56;93.50
77526;BME280;66627;29.424;-98.496;2024-03-17T07:48:29;98667.65;;;18.26;94.65
77526;BME280;66627;29.424;-98.496;2024-03-17T07:50:54;98608.03;;;17.73;97.01
77526;BME280;66627;29.424;-98.496;2024-03-17T07:53:14;98488.17;;;17.41;99.71
77526;BME280;66627;29.424;-98.496;2024-03-17T07:55:39;98296.71;;;17.36;100.00
77526;BME280;66627;29.424;-98.496;2024-03-17T07:58:05;98138.57;;;16.74;100.00
77526;BME280;66627;29.424;-98.496;2024-03-17T08:00:31;98088.81;;;16.25;100.00
77526;BME280;66627;29.424;-98.496;2024-03-17T08:03:03;98156.91;;;16.24;100.00
77526;BME280;66627;29.424;-98.496;2024-03-17T08:05:22;98269.29;;;16.73;100.00
77526;BME280;66627;29.424;-98.496;2024-03-17T08:07:48;98342.61;;;17.34;100.00
77526;BME280;66627;29.424;-98.496;2024-03-17T08:10:13;98369.26;;;17.59;99.94
77526;BME280;66627;29.424;-98.496;2024-03-17T08:12:39;98376.53;;;17.76;97.15
77526;BME280;66627;29.424;-98.496;2024-03-17T08:15:05;98380.06;;;17.42;98.42
77526;BME280;66627;29.424;-98.496;2024-03-17T08:17:30;98376.26;;;16.64;100.00
77526;BME280;66627;29.424;-98.496;2024-03-17T08:19:55;98389.11;;;16.56;100.00
77526;BME280;66627;29.424;-98.496;2024-03-17T08:22:21;98412.02;;;16.60;100.00
77526;BME280;66627;29.424;-98.496;2024-03-17T08:24:45;98437.60;;;16.40;100.00
77526;BME280;66627;29.424;-98.496;2024-03-17T08:27:11;98441.19;;;16.60;100.00
77526;BME280;66627;29.424;-98.496;2024-03-17T08:29:36;98430.02;;;16.00;100.00
77526;BME280;66627;29.424;-98.496;2024-03-17T08:32:07;98429.09;;;16.51;100.00
77526;BME280;66627;29.424;-98.496;2024-03-17T08:34:27;98425.72;;;15.67;100.00
77526;BME280;66627;29.424;-98.496;2024-03-17T08:36:52;98423.36;;;16.06;100.00
77526;BME280;66627;29.424;-98.496;2024-03-17T08:39:17;98423.85;;;15.46;100.00
77526;BME280;66627;29.424;-98.496;2024-03-17T08:41:43;98414.61;;;15.52;100.00
77526;BME280;66627;29.424;-98.496;2024-03-17T08:44:07;98409.38;;;15.38;100.00
77526;BME280;66627;29.424;-98.496;2024-03-17T08:46:33;98402.24;;;15.24;100.00
77526;BME280;66627;29.424;-98.496;2024-03-17T08:48:59;98399.23;;;15.74;100.00
77526;BME280;66627;29.424;-98.496;2024-03-17T08:51:24;98408.43;;;16.30;100.00
77526;BME280;66627;29.424;-98.496;2024-03-17T08:53:48;98413.11;;;16.83;96.27
77526;BME280;66627;29.424;-98.496;2024-03-17T08:56:14;98414.76;;;16.96;94.36
77526;BME280;66627;29.424;-98.496;2024-03-17T08:58:38;98414.41;;;17.08;92.91
77526;BME280;66627;29.424;-98.496;2024-03-17T09:01:05;98420.53;;;17.19;91.33
77526;BME280;66627;29.424;-98.496;2024-03-17T09:03:28;98426.69;;;17.48;89.19
77526;BME280;66627;29.424;-98.496;2024-03-17T09:06:03;98429.14;;;17.60;88.38
77526;BME280;66627;29.424;-98.496;2024-03-17T09:08:21;98421.53;;;16.92;89.60
77526;BME280;66627;29.424;-98.496;2024-03-17T09:10:44;98420.04;;;17.72;88.05
77526;BME280;66627;29.424;-98.496;2024-03-17T09:13:15;98416.07;;;17.11;87.32
77526;BME280;66627;29.424;-98.496;2024-03-17T09:15:34;98403.92;;;17.25;86.36
77526;BME280;66627;29.424;-98.496;2024-03-17T09:18:00;98397.55;;;17.63;86.55
77526;BME280;66627;29.424;-98.496;2024-03-17T09:20:26;98399.91;;;18.15;85.75
77526;BME280;66627;29.424;-98.496;2024-03-17T09:22:50;98408.88;;;18.48;84.94
77526;BME280;66627;29.424;-98.496;2024-03-17T09:25:16;98415.94;;;17.74;84.11
77526;BME280;66627;29.424;-98.496;2024-03-17T09:27:41;98430.41;;;18.52;82.50
77526;BME280;66627;29.424;-98.496;2024-03-17T09:30:11;98431.63;;;18.74;81.26
77526;BME280;66627;29.424;-98.496;2024-03-17T09:32:31;98432.06;;;17.70;84.51
77526;BME280;66627;29.424;-98.496;2024-03-17T09:34:55;98426.53;;;17.01;87.21
77526;BME280;66627;29.424;-98.496;2024-03-17T09:37:20;98441.12;;;16.95;91.41
77526;BME280;66627;29.424;-98.496;2024-03-17T09:39:48;98455.75;;;16.31;92.75
77526;BME280;66627;29.424;-98.496;2024-03-17T09:42:18;98471.05;;;17.57;90.00
77526;BME280;66627;29.424;-98.496;2024-03-17T09:44:38;98481.20;;;17.64;87.22
77526;BME280;66627;29.424;-98.496;2024-03-17T09:47:04;98490.39;;;18.13;83.49
77526;BME280;66627;29.424;-98.496;2024-03-17T09:49:27;98483.49;;;18.63;82.09
77526;BME280;66627;29.424;-98.496;2024-03-17T09:51:54;98487.57;;;18.26;83.89
77526;BME280;66627;29.424;-98.496;2024-03-17T09:54:18;98485.79;;;17.01;88.44
77526;BME280;66627;29.424;-98.496;2024-03-17T09:56:42;98486.77;;;18.05;83.63
77526;BME280;66627;29.424;-98.496;2024-03-17T09:59:08;98490.60;;;17.08;87.40
77526;BME280;66627;29.424;-98.496;2024-03-17T10:01:32;98498.74;;;18.58;83.90
77526;BME280;66627;29.424;-98.496;2024-03-17T10:03:57;98514.30;;;18.67;82.34
77526;BME280;66627;29.424;-98.496;2024-03-17T10:06:24;98529.80;;;18.35;84.57
77526;BME280;66627;29.424;-98.496;2024-03-17T10:08:48;98536.04;;;17.68;84.49
77526;BME280;66627;29.424;-98.496;2024-03-17T10:11:13;98537.40;;;17.62;87.71
77526;BME280;66627;29.424;-98.496;2024-03-17T10:13:37;98534.78;;;16.98;89.74
77526;BME280;66627;29.424;-98.496;2024-03-17T10:16:03;98532.53;;;17.66;88.41
77526;BME280;66627;29.424;-98.496;2024-03-17T10:18:28;98535.24;;;18.25;84.02
77526;BME280;66627;29.424;-98.496;2024-03-17T10:20:53;98549.30;;;18.87;82.56
77526;BME280;66627;29.424;-98.496;2024-03-17T10:23:24;98555.22;;;18.85;82.08
77526;BME280;66627;29.424;-98.496;2024-03-17T10:25:45;98554.51;;;18.13;82.67
77526;BME280;66627;29.424;-98.496;2024-03-17T10:28:13;98554.14;;;17.85;84.47
77526;BME280;66627;29.424;-98.496;2024-03-17T10:30:34;98563.85;;;19.10;81.54
77526;BME280;66627;29.424;-98.496;2024-03-17T10:33:00;98561.67;;;19.26;79.16
77526;BME280;66627;29.424;-98.496;2024-03-17T10:35:37;98566.95;;;19.33;79.35
77526;BME280;66627;29.424;-98.496;2024-03-17T10:37:54;98571.28;;;19.57;78.93
77526;BME280;66627;29.424;-98.496;2024-03-17T10:40:14;98567.58;;;19.13;79.81
77526;BME280;66627;29.424;-98.496;2024-03-17T10:42:39;98574.89;;;19.42;78.96
77526;BME280;66627;29.424;-98.496;2024-03-17T10:45:08;98576.55;;;19.68;77.55
77526;BME280;66627;29.424;-98.496;2024-03-17T10:47:30;98576.18;;;19.15;78.69
77526;BME280;66627;29.424;-98.496;2024-03-17T10:49:55;98573.02;;;19.27;77.30
77526;BME280;66627;29.424;-98.496;2024-03-17T10:52:21;98568.30;;;19.56;77.13
77526;BME280;66627;29.424;-98.496;2024-03-17T10:54:48;98570.75;;;19.19;76.90
77526;BME280;66627;29.424;-98.496;2024-03-17T10:57:22;98578.99;;;18.81;79.41
77526;BME280;66627;29.424;-98.496;2024-03-17T10:59:40;98581.65;;;19.51;77.51
77526;BME280;66627;29.424;-98.496;2024-03-17T11:02:03;98576.77;;;19.21;77.70
77526;BME280;66627;29.424;-98.496;2024-03-17T11:04:26;98580.72;;;19.49;77.66
77526;BME280;66627;29.424;-98.496;2024-03-17T11:06:51;98588.58;;;19.53;77.90
77526;BME280;66627;29.424;-98.496;2024-03-17T11:09:17;98598.75;;;19.32;78.29
77526;BME280;66627;29.424;-98.496;2024-03-17T11:11:41;98585.36;;;19.40;77.96
77526;BME280;66627;29.424;-98.496;2024-03-17T11:14:16;98581.22;;;18.83;79.66
77526;BME280;66627;29.424;-98.496;2024-03-17T11:16:32;98577.16;;;19.33;78.21
77526;BME280;66627;29.424;-98.496;2024-03-17T11:19:05;98579.04;;;19.22;78.26
77526;BME280;66627;29.424;-98.496;2024-03-17T11:21:24;98582.71;;;18.73;78.80
77526;BME280;66627;29.424;-98.496;2024-03-17T11:23:57;98583.97;;;18.66;80.40
77526;BME280;66627;29.424;-98.496;2024-03-17T11:26:13;98586.18;;;18.51;81.47
77526;BME280;66627;29.424;-98.496;2024-03-17T11:28:48;98590.95;;;18.48;81.00
77526;BME280;66627;29.424;-98.496;2024-03-17T11:31:02;98589.99;;;18.36;80.61
77526;BME280;66627;29.424;-98.496;2024-03-17T11:33:46;98581.57;;;18.49;79.91
77526;BME280;66627;29.424;-98.496;2024-03-17T11:35:53;98579.37;;;18.74;79.05
77526;BME280;66627;29.424;-98.496;2024-03-17T11:40:42;98604.20;;;18.76;78.83
77526;BME280;66627;29.424;-98.496;2024-03-17T11:43:13;98605.81;;;18.68;79.10
77526;BME280;66627;29.424;-98.496;2024-03-17T11:45:33;98601.12;;;17.33;82.93
77526;BME280;66627;29.424;-98.496;2024-03-17T11:47:58;98601.88;;;18.12;80.64
77526;BME280;66627;29.424;-98.496;2024-03-17T11:50:24;98600.32;;;18.23;82.04
77526;BME280;66627;29.424;-98.496;2024-03-17T11:52:57;98603.51;;;17.88;81.65
77526;BME280;66627;29.424;-98.496;2024-03-17T11:55:18;98604.02;;;18.30;81.87
77526;BME280;66627;29.424;-98.496;2024-03-17T11:57:39;98599.99;;;18.09;82.20
77526;BME280;66627;29.424;-98.496;2024-03-17T12:00:06;98593.48;;;17.92;83.86
77526;BME280;66627;29.424;-98.496;2024-03-17T12:02:30;98591.55;;;18.43;83.02
77526;BME280;66627;29.424;-98.496;2024-03-17T12:04:56;98592.95;;;17.17;86.95
77526;BME280;66627;29.424;-98.496;2024-03-17T12:07:22;98591.75;;;17.48;85.37
77526;BME280;66627;29.424;-98.496;2024-03-17T12:09:46;98597.19;;;17.76;84.18
77526;BME280;66627;29.424;-98.496;2024-03-17T12:12:11;98612.15;;;16.84;87.00
77526;BME280;66627;29.424;-98.496;2024-03-17T12:14:38;98619.80;;;17.19;87.36
77526;BME280;66627;29.424;-98.496;2024-03-17T12:17:03;98618.78;;;17.16;85.59
77526;BME280;66627;29.424;-98.496;2024-03-17T12:19:26;98611.73;;;16.65;86.23
77526;BME280;66627;29.424;-98.496;2024-03-17T12:21:52;98612.59;;;17.02;84.05
77526;BME280;66627;29.424;-98.496;2024-03-17T12:24:18;98609.96;;;16.85;85.26
77526;BME280;66627;29.424;-98.496;2024-03-17T12:26:41;98608.39;;;17.69;83.08
77526;BME280;66627;29.424;-98.496;2024-03-17T12:31:31;98600.26;;;16.73;85.12
77526;BME280;66627;29.424;-98.496;2024-03-17T12:33:56;98593.97;;;17.66;82.01